Fort Wayne International Airport
KFWA : now visible

Airfield :











YOU CAN JOIN US ON...

 
LOGIN :

Register | Disclaimer

   EN    FR    IT 

 









Legend :    VFR   Marginal VFR   IFR   Intensive IFR   Very Intensive IFR
Visi :
Ceiling :
>= 8 km
>= 3000ft
5 to 8 km
1000 to 3000 ft
1500m to 5 km
500 to 1000 ft
800 to 1500m
200 to 500 ft
< 800m
< 200 ft
Symbols :   Thunderstorms  Fog  Heavy snow  Heavy precipitations  Wind > 20 kt






- Airport Elevation : 814 ft
- IATA code : FWA


KFWA - Fort Wayne International

CURRENT METAR :
  • 231508Z 02009KT 1SM -SN BR OVC017 M05/M07 A2978 RMK AO2 P0001 T10501067

EXPIRED METARs :
  • 231454Z 02011KT 2SM -SN BR FEW011 OVC015 M05/M07 A2978 RMK AO2 SLP094 P0003 60016 T10501072 53003
  • 231444Z 02010KT 2SM -SN BR FEW012 OVC015 M05/M07 A2977 RMK AO2 P0003 T10501072
  • 231437Z 02011KT 1SM -SN BR FEW010 OVC015 M05/M07 A2977 RMK AO2 P0003 T10501067
  • 231354Z 01006KT 3/4SM -SN BR OVC012 M04/M05 A2977 RMK AO2 SLP090 SNINCR 1/2 P0006 T10391050
  • 231315Z 00000KT 3/4SM -SN BR SCT007 OVC014 M03/M05 A2977 RMK AO2 P0002 T10331050
  • 231254Z 28004KT 1/2SM SN FZFG VV007 M03/M04 A2977 RMK AO2 SLP092 P0007 T10331044

TAF KFWA
Valid from the 23 at 14:00 until the 24 at 12:00 UTC


231424Z 2314/2412 34007KT 1 1/2SM -SN BR OVC015
TEMPO 2314/2315 3/4SM -SN BR OVC010
FM231600 33008KT 5SM -SN OVC020
FM231800 36012KT P6SM BKN040
FM240400 18005KT P6SM BKN060
KZAU FIR / North America



MET'MAP, your aeronautical weather chart ! - Copyright ORBIFLY December 2007 - Disclaimer

ORBIFLY MET'MAP TEAM :

Programming & Development : Alexandra Zaïnal
Concept & original design : Baudouin d'Aumeries
Assistance for programming : Marc-Olivier Méhu
Technical & hardware support : Manuel Goepfert

Contact : metmap@orbifly.com




SOURCES & CREDITS :

   NOAA       Earth
Advisory